AirNav   Free Bose QuietComfort 20
 
 841 users online  

W66 Port Angeles Seaplane Base
Port Angeles, Washington, USA


FAA INFORMATION EFFECTIVE 05 DECEMBER 2019

Location

FAA Identifier: W66
Lat/Long: 48-07-00.1000N 123-24-47.3000W
48-07.001667N 123-24.788333W
48.1166944,-123.4131389
(estimated)
Elevation: 1 ft. / 0 m (estimated)
From city: 1 mile NE of PORT ANGELES, WA
Time zone: UTC -8 (UTC -7 during Daylight Saving Time)
Zip code: 98363

Seaplane Base Operations

Seaplane Base use: Open to the public
Activation date: 07/2019
Control tower: no
ARTCC: SEATTLE CENTER
FSS: SEATTLE FLIGHT SERVICE STATION
NOTAMs facility: SEA (NOTAM-D service not available)
Attendance: 
Segmented circle: no

Seaplane Base Communications

CTAF: 122.975
WX AWOS-3P at NOW (1.5 nm N): 118.325 (360-457-7529)
WX ASOS at CLM (3 nm W): 135.175 (360-457-1070)

Nearby radio navigation aids

VOR radial/distance  VOR name  Freq  Var
CVVr235/28.6PENN COVE VOR/DME117.2019E
YYJr159/36.7VICTORIA VOR/DME113.7017E

 
NDB name  Hdg/Dist  Freq  Var  ID
EDIZ HOOK179/1.433817ENOW -. --- .--
ELWHA085/10.551516ECL -.-. .-..
FRIDAY HARBOR196/28.428417EFHR ..-. .... .-.

Seaplane Base Services

Runway Information

Runway 11W/29W

Dimensions: 3200 x 999 ft. / 975 x 304 m
Surface: water
RUNWAY 11W  RUNWAY 29W
Traffic pattern: leftleft

Seaplane Base Ownership and Management from official FAA records

Ownership: Publicly-owned
Owner: PORT OF PORT ANGELES
338 W. FIRST ST. POB 1350
PORT ANGELES, WA 98362
Phone 360 457 8527
Manager: DANIEL GASE
338 W. FIRST ST. POB 1350
PORT ANGELES, WA 98362
Phone 360 417 3376

Seaplane Base Operational Statistics

Aircraft operations: 12/year
100% local general aviation

Additional Remarks

OWNER DESIRES ARPT BE CHARTED.

Instrument Procedures

There are no published instrument procedures at W66.

Some nearby airports with instrument procedures:

KNOW - Port Angeles Coast Guard Air Station Airport (1 nm N)
KCLM - William R Fairchild International Airport (3 nm W)
0S9 - Jefferson County International Airport (24 nm E)
KFHR - Friday Harbor Airport (29 nm NE)
KOKH - AJ Eisenberg Airport (31 nm E)
 
Loc | Ops | Rwys | IFR | FBO | Links
Com | Nav | Svcs | Stats | Notes
Aerial photo
No photo
 
Airport distance calculator
Flying to Port Angeles Seaplane Base? Find the distance to fly.

From to W66

Sunrise and sunset
Times for 08-Dec-2019
 Local
(UTC-8)
 Zulu
(UTC)
Morning civil twilight07:1615:16
Sunrise07:5215:52
Sunset16:1900:19
Evening civil twilight16:5500:55

Current date and time
Zulu (UTC)  09-Dec-2019 01:20:40
Local (UTC-8)  08-Dec-2019 17:20:40
 
METAR
KCLM 
3nm W 
090053Z AUTO 12004KT 10SM FEW036 OVC055 07/06 A3019 RMK AO2 SLP225 T00720061
KNOW 
7nm W 
090050Z AUTO 10003KT 10SM SCT039 OVC060 08/07 A3019 RMK AO2 T00800071
CWQK 
11nm N 
090000Z AUTO 07012KT 09/07 RMK AO1 SLP217 T00860067 53019
CWPF 
18nm N 
090045Z AUTO 05002KT 09/06 RMK AO1 SLP219 T00870062 53019
CWLM 
18nm N 
090000Z AUTO 04002KT 08/06 RMK AO1 SLP219 T00800063 53020
CYWH 
18nm N 
090000Z VRB02KT 15SM FEW009 SCT020 OVC050 09/06 A3018 RMK SF1SC2SC5 SLP222
TAF
KCLM 
3nm W 
081720Z 0818/0918 00000KT P6SM SCT020 BKN040 FM090600 00000KT P6SM OVC015 FM091200 00000KT 5SM BR OVC012 TEMPO 0912/0916 2SM BR OVC008
CYWH 
18nm N 
081738Z 0818/0905 VRB03KT 6SM BR SCT006 BKN040 TEMPO 0818/0820 2SM -DZ BR BKN006 FM082000 01007KT P6SM FEW008 BKN040 TEMPO 0820/0902 BKN008 FM090200 36005KT P6SM SCT006 BKN040 TEMPO 0902/0905 2SM BR BKN006 RMK NXT FCST BY 090000Z
NOTAMs
Click for the latest NOTAMs
NOTAMs are issued by the DoD/FAA and will open in a separate window not controlled by AirNav.

 

 
 

Would you like to see your business listed on this page?

 If your business provides an interesting product or service to pilots, flight crews, aircraft, or users of the Port Angeles Seaplane Base, you should consider listing it here.  To start the listing process, click on the button below
 
Add a business
 

Other Pages about Port Angeles Seaplane Base

Update a link
 
Copyright © AirNav, LLC. All rights reserved. Privacy Policy  Contact